PWSweather.com
Personal Weather Stations
Station Observations
KCTHAMDEN
Dunbar Hill, Hamden, CT 06514

Dunbar HillHamden, CT 06514

Lat: 41.365437, Lon: -72.956532

Elevation: 200

Station Type: Davis Vantage Pro2+

www.hamdenweather.com

High Low Average
Temperature 77.2°F25.1°C 62.3°F16.8°C 68.9°F20.5°C
Dew Point 66.2°F19.0°C 58.9°F14.9°C 61.5°F16.4°C
Winds 4.6 mph 7.4 kmh Calm Calm 1.0 mph SE1.6 kmh SE
Wind Gusts 9.0 mph14.5 kmh -- 2.0 mph3.2 kmh
Humidity 91% 54% 78%
Pressure 30.35 in1027.8 mb 30.27 in1025.1 mb -
Precipitation 0.00 in0.0 mm - -
Hour Temp Dew Point Humidity Winds Wind Gusts Pressure Precip Precip Rate Daily Precip Total
12:00 AM 67.4°F19.7°C 61.4°F16.3°C 81% 6.0 mph E9.7 kmh E 6.0 mph9.7 kmh 30.32 in1026.8 mb - 0.00 in0.0 mm 0.00 in0.0 mm
12:15 AM 67.2°F19.6°C 61.2°F16.2°C 81% Calm Calm -- 30.32 in1026.8 mb - 0.00 in0.0 mm 0.00 in0.0 mm
12:30 AM 67.1°F19.5°C 61.1°F16.2°C 81% Calm Calm -- 30.32 in1026.8 mb - 0.00 in0.0 mm 0.00 in0.0 mm
12:45 AM 66.8°F19.3°C 60.8°F16.0°C 81% 2.1 mph ENE3.4 kmh ENE 3.0 mph4.8 kmh 30.32 in1026.8 mb - 0.00 in0.0 mm 0.00 in0.0 mm
01:00 AM 66.7°F19.3°C 61.0°F16.1°C 82% 0.3 mph E0.5 kmh E 3.0 mph4.8 kmh 30.32 in1026.8 mb - 0.00 in0.0 mm 0.00 in0.0 mm
01:15 AM 66.7°F19.3°C 60.7°F15.9°C 81% 1.5 mph E2.4 kmh E 2.0 mph3.2 kmh 30.32 in1026.8 mb - 0.00 in0.0 mm 0.00 in0.0 mm
01:30 AM 66.6°F19.2°C 60.9°F16.1°C 82% 0.4 mph NE0.6 kmh NE 3.0 mph4.8 kmh 30.31 in1026.4 mb - 0.00 in0.0 mm 0.00 in0.0 mm
01:45 AM 66.3°F19.1°C 60.3°F15.7°C 81% 0.9 mph ENE1.4 kmh ENE 4.0 mph6.4 kmh 30.32 in1026.8 mb - 0.00 in0.0 mm 0.00 in0.0 mm
02:00 AM 66.0°F18.9°C 60.3°F15.7°C 82% Calm Calm -- 30.32 in1026.8 mb - 0.00 in0.0 mm 0.00 in0.0 mm
02:15 AM 65.6°F18.7°C 60.3°F15.7°C 83% Calm Calm -- 30.32 in1026.8 mb - 0.00 in0.0 mm 0.00 in0.0 mm
02:30 AM 65.3°F18.5°C 60.3°F15.7°C 84% Calm Calm -- 30.32 in1026.8 mb - 0.00 in0.0 mm 0.00 in0.0 mm
02:45 AM 65.0°F18.3°C 60.0°F15.6°C 84% Calm Calm -- 30.32 in1026.8 mb - 0.00 in0.0 mm 0.00 in0.0 mm
03:00 AM 64.9°F18.3°C 60.2°F15.7°C 85% Calm Calm -- 30.32 in1026.8 mb - 0.00 in0.0 mm 0.00 in0.0 mm
03:15 AM 64.8°F18.2°C 60.2°F15.7°C 85% 0.5 mph NE0.8 kmh NE 1.0 mph1.6 kmh 30.32 in1026.8 mb - 0.00 in0.0 mm 0.00 in0.0 mm
03:30 AM 64.7°F18.2°C 60.1°F15.6°C 85% Calm Calm -- 30.32 in1026.8 mb - 0.00 in0.0 mm 0.00 in0.0 mm
03:45 AM 64.5°F18.1°C 59.9°F15.5°C 85% 0.9 mph NNW1.4 kmh NNW 3.0 mph4.8 kmh 30.32 in1026.8 mb - 0.00 in0.0 mm 0.00 in0.0 mm
04:00 AM 64.2°F17.9°C 59.9°F15.5°C 86% 0.1 mph WSW0.2 kmh WSW 1.0 mph1.6 kmh 30.32 in1026.8 mb - 0.00 in0.0 mm 0.00 in0.0 mm
04:15 AM 63.9°F17.7°C 59.6°F15.3°C 86% 0.3 mph WSW0.5 kmh WSW -- 30.32 in1026.8 mb - 0.00 in0.0 mm 0.00 in0.0 mm
04:30 AM 63.6°F17.6°C 59.7°F15.4°C 87% Calm Calm -- 30.32 in1026.8 mb - 0.00 in0.0 mm 0.00 in0.0 mm
04:45 AM 63.3°F17.4°C 59.4°F15.2°C 87% Calm Calm -- 30.32 in1026.8 mb - 0.00 in0.0 mm 0.00 in0.0 mm
05:00 AM 63.0°F17.2°C 59.4°F15.2°C 88% Calm Calm -- 30.32 in1026.8 mb - 0.00 in0.0 mm 0.00 in0.0 mm
05:15 AM 62.8°F17.1°C 59.5°F15.3°C 89% Calm Calm -- 30.32 in1026.8 mb - 0.00 in0.0 mm 0.00 in0.0 mm
05:30 AM 62.8°F17.1°C 59.5°F15.3°C 89% Calm Calm -- 30.33 in1027.1 mb - 0.00 in0.0 mm 0.00 in0.0 mm
05:45 AM 62.8°F17.1°C 59.5°F15.3°C 89% Calm Calm -- 30.33 in1027.1 mb - 0.00 in0.0 mm 0.00 in0.0 mm
06:00 AM 62.9°F17.2°C 59.6°F15.3°C 89% Calm Calm -- 30.34 in1027.4 mb - 0.00 in0.0 mm 0.00 in0.0 mm
06:15 AM 62.9°F17.2°C 59.6°F15.3°C 89% 0.1 mph WSW0.2 kmh WSW 1.0 mph1.6 kmh 30.34 in1027.4 mb - 0.00 in0.0 mm 0.00 in0.0 mm
06:30 AM 63.0°F17.2°C 59.7°F15.4°C 89% Calm Calm -- 30.33 in1027.1 mb - 0.00 in0.0 mm 0.00 in0.0 mm
06:45 AM 63.1°F17.3°C 59.8°F15.4°C 89% Calm Calm -- 30.34 in1027.4 mb - 0.00 in0.0 mm 0.00 in0.0 mm
07:00 AM 63.2°F17.3°C 59.6°F15.3°C 88% Calm Calm -- 30.34 in1027.4 mb - 0.00 in0.0 mm 0.00 in0.0 mm
07:15 AM 63.4°F17.4°C 59.8°F15.4°C 88% Calm Calm -- 30.33 in1027.1 mb - 0.00 in0.0 mm 0.00 in0.0 mm
07:30 AM 63.7°F17.6°C 60.1°F15.6°C 88% 1.2 mph NE1.9 kmh NE 2.0 mph3.2 kmh 30.34 in1027.4 mb - 0.00 in0.0 mm 0.00 in0.0 mm
07:45 AM 64.0°F17.8°C 59.7°F15.4°C 86% 0.3 mph NE0.5 kmh NE 1.0 mph1.6 kmh 30.34 in1027.4 mb - 0.00 in0.0 mm 0.00 in0.0 mm
08:00 AM 64.3°F17.9°C 60.3°F15.7°C 87% 0.1 mph NE0.2 kmh NE -- 30.34 in1027.4 mb - 0.00 in0.0 mm 0.00 in0.0 mm
08:15 AM 64.5°F18.1°C 60.2°F15.7°C 86% 0.7 mph NE1.1 kmh NE 2.0 mph3.2 kmh 30.34 in1027.4 mb - 0.00 in0.0 mm 0.00 in0.0 mm
08:30 AM 64.7°F18.2°C 60.7°F15.9°C 87% 0.9 mph NE1.4 kmh NE 4.0 mph6.4 kmh 30.35 in1027.8 mb - 0.00 in0.0 mm 0.00 in0.0 mm
08:45 AM 64.9°F18.3°C 60.6°F15.9°C 86% 0.5 mph NE0.8 kmh NE 4.0 mph6.4 kmh 30.34 in1027.4 mb - 0.00 in0.0 mm 0.00 in0.0 mm
09:00 AM 65.4°F18.6°C 61.1°F16.2°C 86% 0.4 mph SSE0.6 kmh SSE 1.0 mph1.6 kmh 30.34 in1027.4 mb - 0.00 in0.0 mm 0.00 in0.0 mm
09:15 AM 66.6°F19.2°C 61.6°F16.4°C 84% 2.5 mph NNW4.0 kmh NNW 4.0 mph6.4 kmh 30.34 in1027.4 mb - 0.00 in0.0 mm 0.00 in0.0 mm
09:30 AM 67.8°F19.9°C 62.4°F16.9°C 83% 1.4 mph WSW2.3 kmh WSW 3.0 mph4.8 kmh 30.34 in1027.4 mb - 0.00 in0.0 mm 0.00 in0.0 mm
09:45 AM 68.3°F20.2°C 62.9°F17.2°C 83% 0.3 mph N0.5 kmh N 2.0 mph3.2 kmh 30.34 in1027.4 mb - 0.00 in0.0 mm 0.00 in0.0 mm
10:00 AM 68.6°F20.3°C 62.5°F16.9°C 81% 0.4 mph N0.6 kmh N 1.0 mph1.6 kmh 30.35 in1027.8 mb - 0.00 in0.0 mm 0.00 in0.0 mm
10:15 AM 69.2°F20.7°C 63.5°F17.5°C 82% 0.1 mph W0.2 kmh W 1.0 mph1.6 kmh 30.35 in1027.8 mb - 0.00 in0.0 mm 0.00 in0.0 mm
10:30 AM 69.5°F20.8°C 63.4°F17.4°C 81% 2.0 mph WSW3.2 kmh WSW 3.0 mph4.8 kmh 30.35 in1027.8 mb - 0.00 in0.0 mm 0.00 in0.0 mm
10:45 AM 70.5°F21.4°C 64.0°F17.8°C 80% Calm Calm 1.0 mph1.6 kmh 30.34 in1027.4 mb - 0.00 in0.0 mm 0.00 in0.0 mm
11:00 AM 72.1°F22.3°C 64.1°F17.8°C 76% 1.0 mph E1.6 kmh E 2.0 mph3.2 kmh 30.34 in1027.4 mb - 0.00 in0.0 mm 0.00 in0.0 mm
11:15 AM 74.0°F23.3°C 63.2°F17.3°C 69% 2.7 mph E4.3 kmh E 4.0 mph6.4 kmh 30.34 in1027.4 mb - 0.00 in0.0 mm 0.00 in0.0 mm
11:30 AM 73.9°F23.3°C 61.8°F16.6°C 66% 4.4 mph E7.1 kmh E 7.0 mph11.3 kmh 30.33 in1027.1 mb - 0.00 in0.0 mm 0.00 in0.0 mm
11:45 AM 74.2°F23.4°C 62.5°F16.9°C 67% 3.3 mph E5.3 kmh E 8.0 mph12.9 kmh 30.32 in1026.8 mb - 0.00 in0.0 mm 0.00 in0.0 mm
12:00 PM 74.9°F23.8°C 63.7°F17.6°C 68% 3.4 mph ESE5.5 kmh ESE 7.0 mph11.3 kmh 30.32 in1026.8 mb - 0.00 in0.0 mm 0.00 in0.0 mm
12:15 PM 75.3°F24.1°C 63.1°F17.3°C 66% 3.1 mph SE5.0 kmh SE 9.0 mph14.5 kmh 30.32 in1026.8 mb - 0.00 in0.0 mm 0.00 in0.0 mm
12:30 PM 76.5°F24.7°C 61.1°F16.2°C 59% 4.6 mph E7.4 kmh E 8.0 mph12.9 kmh 30.32 in1026.8 mb - 0.00 in0.0 mm 0.00 in0.0 mm
12:45 PM 76.6°F24.8°C 63.1°F17.3°C 63% 2.8 mph ESE4.5 kmh ESE 3.0 mph4.8 kmh 30.32 in1026.8 mb - 0.00 in0.0 mm 0.00 in0.0 mm
01:00 PM 77.2°F25.1°C 63.6°F17.6°C 63% 0.7 mph SE1.1 kmh SE 3.0 mph4.8 kmh 30.32 in1026.8 mb - 0.00 in0.0 mm 0.00 in0.0 mm
01:15 PM 76.5°F24.7°C 65.5°F18.6°C 69% 1.8 mph SE2.9 kmh SE 2.0 mph3.2 kmh 30.32 in1026.8 mb - 0.00 in0.0 mm 0.00 in0.0 mm
01:30 PM 75.5°F24.2°C 65.0°F18.3°C 70% 0.9 mph WSW1.4 kmh WSW 2.0 mph3.2 kmh 30.33 in1027.1 mb - 0.00 in0.0 mm 0.00 in0.0 mm
01:45 PM 75.5°F24.2°C 66.2°F19.0°C 73% 0.3 mph WSW0.5 kmh WSW 2.0 mph3.2 kmh 30.33 in1027.1 mb - 0.00 in0.0 mm 0.00 in0.0 mm
02:00 PM 75.5°F24.2°C 65.0°F18.3°C 70% 1.0 mph SSW1.6 kmh SSW 3.0 mph4.8 kmh 30.33 in1027.1 mb - 0.00 in0.0 mm 0.00 in0.0 mm
02:15 PM 75.7°F24.3°C 64.0°F17.8°C 67% 0.9 mph E1.4 kmh E 1.0 mph1.6 kmh 30.32 in1026.8 mb - 0.00 in0.0 mm 0.00 in0.0 mm
02:30 PM 75.5°F24.2°C 63.8°F17.7°C 67% 3.3 mph E5.3 kmh E 4.0 mph6.4 kmh 30.32 in1026.8 mb - 0.00 in0.0 mm 0.00 in0.0 mm
02:45 PM 75.5°F24.2°C 63.8°F17.7°C 67% 0.9 mph SE1.4 kmh SE 2.0 mph3.2 kmh 30.32 in1026.8 mb - 0.00 in0.0 mm 0.00 in0.0 mm
03:00 PM 76.3°F24.6°C 61.4°F16.3°C 60% 0.7 mph ESE1.1 kmh ESE 2.0 mph3.2 kmh 30.31 in1026.4 mb - 0.00 in0.0 mm 0.00 in0.0 mm
03:15 PM 76.5°F24.7°C 61.1°F16.2°C 59% 2.1 mph ESE3.4 kmh ESE 2.0 mph3.2 kmh 30.30 in1026.1 mb - 0.00 in0.0 mm 0.00 in0.0 mm
03:30 PM 76.4°F24.7°C 60.1°F15.6°C 57% 1.6 mph SE2.6 kmh SE 3.0 mph4.8 kmh 30.30 in1026.1 mb - 0.00 in0.0 mm 0.00 in0.0 mm
03:45 PM 76.2°F24.6°C 60.8°F16.0°C 59% 1.3 mph SE2.1 kmh SE 4.0 mph6.4 kmh 30.30 in1026.1 mb - 0.00 in0.0 mm 0.00 in0.0 mm
04:00 PM 76.1°F24.5°C 60.8°F16.0°C 59% 1.8 mph E2.9 kmh E 4.0 mph6.4 kmh 30.29 in1025.7 mb - 0.00 in0.0 mm 0.00 in0.0 mm
04:15 PM 76.0°F24.4°C 62.1°F16.7°C 62% 2.2 mph SE3.5 kmh SE 5.0 mph8.0 kmh 30.29 in1025.7 mb - 0.00 in0.0 mm 0.00 in0.0 mm
04:30 PM 76.7°F24.8°C 60.3°F15.7°C 57% 1.5 mph S2.4 kmh S 3.0 mph4.8 kmh 30.29 in1025.7 mb - 0.00 in0.0 mm 0.00 in0.0 mm
04:45 PM 76.8°F24.9°C 58.9°F14.9°C 54% 0.3 mph SE0.5 kmh SE 2.0 mph3.2 kmh 30.29 in1025.7 mb - 0.00 in0.0 mm 0.00 in0.0 mm
05:00 PM 77.1°F25.1°C 59.2°F15.1°C 54% 2.5 mph ENE4.0 kmh ENE 4.0 mph6.4 kmh 30.29 in1025.7 mb - 0.00 in0.0 mm 0.00 in0.0 mm
05:15 PM 76.9°F24.9°C 63.3°F17.4°C 63% 0.3 mph SSE0.5 kmh SSE 1.0 mph1.6 kmh 30.29 in1025.7 mb - 0.00 in0.0 mm 0.00 in0.0 mm
05:30 PM 77.2°F25.1°C 62.7°F17.1°C 61% 1.8 mph ESE2.9 kmh ESE 4.0 mph6.4 kmh 30.28 in1025.4 mb - 0.00 in0.0 mm 0.00 in0.0 mm
05:45 PM 76.6°F24.8°C 63.1°F17.3°C 63% Calm Calm 1.0 mph1.6 kmh 30.27 in1025.1 mb - 0.00 in0.0 mm 0.00 in0.0 mm
06:00 PM 75.9°F24.4°C 63.8°F17.7°C 66% Calm Calm 1.0 mph1.6 kmh 30.28 in1025.4 mb - 0.00 in0.0 mm 0.00 in0.0 mm
06:15 PM 74.7°F23.7°C 63.9°F17.7°C 69% Calm Calm -- 30.28 in1025.4 mb - 0.00 in0.0 mm 0.00 in0.0 mm
06:30 PM 73.6°F23.1°C 65.1°F18.4°C 75% Calm Calm -- 30.28 in1025.4 mb - 0.00 in0.0 mm 0.00 in0.0 mm
06:45 PM 72.7°F22.6°C 64.3°F17.9°C 75% 2.9 mph E4.7 kmh E 3.0 mph4.8 kmh 30.28 in1025.4 mb - 0.00 in0.0 mm 0.00 in0.0 mm
07:00 PM 71.7°F22.1°C 62.5°F16.9°C 73% 1.0 mph ESE1.6 kmh ESE 1.0 mph1.6 kmh 30.28 in1025.4 mb - 0.00 in0.0 mm 0.00 in0.0 mm
07:15 PM 71.3°F21.8°C 62.6°F17.0°C 74% 0.9 mph E1.4 kmh E 3.0 mph4.8 kmh 30.27 in1025.1 mb - 0.00 in0.0 mm 0.00 in0.0 mm
07:30 PM 70.9°F21.6°C 62.6°F17.0°C 75% Calm Calm -- 30.27 in1025.1 mb - 0.00 in0.0 mm 0.00 in0.0 mm
07:45 PM 70.6°F21.4°C 62.7°F17.1°C 76% Calm Calm -- 30.27 in1025.1 mb - 0.00 in0.0 mm 0.00 in0.0 mm
08:00 PM 70.0°F21.1°C 63.2°F17.3°C 79% Calm Calm -- 30.28 in1025.4 mb - 0.00 in0.0 mm 0.00 in0.0 mm
08:15 PM 69.4°F20.8°C 62.6°F17.0°C 79% Calm Calm -- 30.28 in1025.4 mb - 0.00 in0.0 mm 0.00 in0.0 mm
08:30 PM 68.8°F20.4°C 61.7°F16.5°C 78% Calm Calm -- 30.28 in1025.4 mb - 0.00 in0.0 mm 0.00 in0.0 mm
08:45 PM 68.4°F20.2°C 62.0°F16.7°C 80% Calm Calm -- 30.27 in1025.1 mb - 0.00 in0.0 mm 0.00 in0.0 mm
09:00 PM 67.7°F19.8°C 61.3°F16.3°C 80% Calm Calm -- 30.28 in1025.4 mb - 0.00 in0.0 mm 0.00 in0.0 mm
09:15 PM 67.1°F19.5°C 61.4°F16.3°C 82% Calm Calm -- 30.28 in1025.4 mb - 0.00 in0.0 mm 0.00 in0.0 mm
09:30 PM 66.4°F19.1°C 61.1°F16.2°C 83% Calm Calm -- 30.29 in1025.7 mb - 0.00 in0.0 mm 0.00 in0.0 mm
09:45 PM 65.7°F18.7°C 61.1°F16.2°C 85% Calm Calm -- 30.29 in1025.7 mb - 0.00 in0.0 mm 0.00 in0.0 mm
10:00 PM 65.1°F18.4°C 61.1°F16.2°C 87% Calm Calm -- 30.30 in1026.1 mb - 0.00 in0.0 mm 0.00 in0.0 mm
10:15 PM 64.7°F18.2°C 61.1°F16.2°C 88% Calm Calm -- 30.30 in1026.1 mb - 0.00 in0.0 mm 0.00 in0.0 mm
10:30 PM 64.5°F18.1°C 60.9°F16.1°C 88% Calm Calm -- 30.30 in1026.1 mb - 0.00 in0.0 mm 0.00 in0.0 mm
10:45 PM 64.4°F18.0°C 61.1°F16.2°C 89% Calm Calm -- 30.30 in1026.1 mb - 0.00 in0.0 mm 0.00 in0.0 mm
11:00 PM 64.3°F17.9°C 61.0°F16.1°C 89% Calm Calm -- 30.29 in1025.7 mb - 0.00 in0.0 mm 0.00 in0.0 mm
11:15 PM 64.2°F17.9°C 61.2°F16.2°C 90% Calm Calm -- 30.29 in1025.7 mb - 0.00 in0.0 mm 0.00 in0.0 mm
11:30 PM 64.1°F17.8°C 61.1°F16.2°C 90% Calm Calm -- 30.28 in1025.4 mb - 0.00 in0.0 mm 0.00 in0.0 mm
11:45 PM 63.8°F17.7°C 60.8°F16.0°C 90% Calm Calm -- 30.28 in1025.4 mb - 0.00 in0.0 mm 0.00 in0.0 mm